Beaver, Wisconsin
Current Conditions -  °F | °C
As of 6:15 PM on Wednesday 22 Oct 2014 (Local Time) from KMNM Reporting Station
Clear Clear  
Wind Chill: 39°   Ceiling: Unl
Heat Index: 43°   Visibility: 10mi
Dew Point: 36°   Wind: 7mph
Humidity: 76%   Direction: 170°S
Pressure: 30.27"   Gusts: NA
Location:  45.272°N, 88.1562°W
Report Text: KMNM 222315Z AUTO 17006KT 10SM CLR 06/02 A3027 RMK AO1
Loading
Personal Weather Stations






























Interactive Weather Map
Tropical Storm Tracking
New forecast layout! Learn more

10-Day Weather Forecast

Advertisements
Track Severe Weather on mobile